createdAt,value
2022-11-28T00:01:36.285Z,75.07
2022-11-28T00:04:04.769Z,75.04
2022-11-28T00:06:31.795Z,74.82
2022-11-28T00:08:59.695Z,74.85
2022-11-28T00:11:27.144Z,74.83
2022-11-28T00:13:54.950Z,75.40
2022-11-28T00:16:23.486Z,75.54
2022-11-28T00:18:52.253Z,74.95
2022-11-28T00:21:19.830Z,74.82
2022-11-28T00:23:48.729Z,74.94
2022-11-28T00:26:31.811Z,74.95
2022-11-28T00:29:00.482Z,74.69
2022-11-28T00:31:31.963Z,74.72
2022-11-28T00:33:59.555Z,74.38
2022-11-28T00:36:26.352Z,74.55
2022-11-28T00:38:53.327Z,74.24
2022-11-28T00:41:28.507Z,73.78
2022-11-28T00:43:55.789Z,74.51
2022-11-28T00:46:24.034Z,74.00
2022-11-28T00:48:51.820Z,73.73
2022-11-28T00:51:25.334Z,73.98
2022-11-28T00:53:55.230Z,73.81
2022-11-28T00:56:26.313Z,73.44
2022-11-28T00:58:53.220Z,73.64
2022-11-28T01:01:31.863Z,74.02
2022-11-28T01:04:03.787Z,73.41
2022-11-28T01:06:37.881Z,73.70
2022-11-28T01:09:10.859Z,73.46
2022-11-28T01:11:39.966Z,74.03
2022-11-28T01:14:06.952Z,73.92
2022-11-28T01:16:34.115Z,73.81
2022-11-28T01:19:00.992Z,73.95
2022-11-28T01:21:28.764Z,74.35
2022-11-28T01:23:55.627Z,74.18
2022-11-28T01:26:28.638Z,74.06
2022-11-28T01:28:56.443Z,74.02
2022-11-28T01:31:26.370Z,73.76
2022-11-28T01:33:53.410Z,73.70
2022-11-28T01:36:21.772Z,73.76
2022-11-28T01:38:49.504Z,74.02
2022-11-28T01:41:21.377Z,73.59
2022-11-28T01:44:13.885Z,73.89
2022-11-28T01:46:41.494Z,73.52
2022-11-28T01:49:23.107Z,73.87
2022-11-28T01:51:56.393Z,74.19
2022-11-28T01:54:25.759Z,74.71
2022-11-28T01:56:59.573Z,73.88
2022-11-28T01:59:31.040Z,74.41
2022-11-28T02:01:57.910Z,74.18
2022-11-28T02:04:28.092Z,74.03
2022-11-28T02:06:55.516Z,73.68
2022-11-28T02:09:22.540Z,73.53
2022-11-28T02:12:23.323Z,73.20
2022-11-28T02:15:15.623Z,73.56
2022-11-28T02:17:55.679Z,73.11
2022-11-28T02:20:52.008Z,72.73
2022-11-28T02:23:50.771Z,73.97
2022-11-28T02:26:43.317Z,73.90
2022-11-28T02:29:34.199Z,73.99
2022-11-28T02:32:41.638Z,73.84
2022-11-28T02:35:52.362Z,73.98
2022-11-28T02:38:41.338Z,73.78
2022-11-28T02:41:39.182Z,73.89
2022-11-28T02:44:24.333Z,73.64
2022-11-28T02:47:09.147Z,73.50
2022-11-28T02:49:47.413Z,73.66
2022-11-28T02:52:23.247Z,73.36
2022-11-28T02:54:55.710Z,73.67
2022-11-28T02:57:22.556Z,73.57
2022-11-28T02:59:51.803Z,73.42
2022-11-28T03:02:30.322Z,74.11
2022-11-28T03:05:29.067Z,74.21
2022-11-28T03:08:37.162Z,73.83
2022-11-28T03:11:43.943Z,73.67
2022-11-28T03:14:29.451Z,73.98
2022-11-28T03:17:18.094Z,73.97
2022-11-28T03:20:38.922Z,74.06
2022-11-28T03:23:13.684Z,74.53
2022-11-28T03:26:04.863Z,73.68
2022-11-28T03:28:43.882Z,73.67
2022-11-28T03:31:41.215Z,73.40
2022-11-28T03:34:15.120Z,73.63
2022-11-28T03:36:48.785Z,73.38
2022-11-28T03:39:21.961Z,73.57
2022-11-28T03:41:57.274Z,74.23
2022-11-28T03:44:31.999Z,73.36
2022-11-28T03:47:01.854Z,73.70
2022-11-28T03:49:40.875Z,73.48
2022-11-28T03:52:17.537Z,73.27
2022-11-28T03:54:56.993Z,73.38
2022-11-28T03:57:48.207Z,73.91
2022-11-28T04:00:16.208Z,73.76
2022-11-28T04:03:21.372Z,73.82
2022-11-28T04:05:56.845Z,73.56
2022-11-28T04:08:27.466Z,74.31
2022-11-28T04:11:08.901Z,73.39
2022-11-28T04:13:57.801Z,73.52
2022-11-28T04:16:36.105Z,74.30
2022-11-28T04:19:58.395Z,73.61
2022-11-28T04:22:32.893Z,73.46
2022-11-28T04:25:08.692Z,73.86
2022-11-28T04:27:40.176Z,73.91
2022-11-28T04:30:08.382Z,73.95
2022-11-28T04:32:42.601Z,74.27
2022-11-28T04:35:16.537Z,73.61
2022-11-28T04:37:48.728Z,73.88
2022-11-28T04:40:17.895Z,73.79
2022-11-28T04:42:56.291Z,74.01
2022-11-28T04:45:34.142Z,74.20
2022-11-28T04:48:02.205Z,73.65
2022-11-28T04:50:42.457Z,73.83
2022-11-28T04:53:18.994Z,73.76
2022-11-28T04:55:53.260Z,74.06
2022-11-28T04:58:26.157Z,73.51
2022-11-28T05:00:55.266Z,73.35
2022-11-28T05:03:27.008Z,73.60
2022-11-28T05:05:54.054Z,73.76
2022-11-28T05:08:21.192Z,74.16
2022-11-28T05:10:48.395Z,74.61
2022-11-28T05:13:15.624Z,74.29
2022-11-28T05:15:42.434Z,74.18
2022-11-28T05:18:09.375Z,73.84
2022-11-28T05:20:38.417Z,73.94
2022-11-28T05:23:05.269Z,74.42
2022-11-28T05:25:32.168Z,74.27
2022-11-28T05:27:58.966Z,74.35
2022-11-28T05:30:25.880Z,73.90
2022-11-28T05:32:52.981Z,75.16
2022-11-28T05:35:19.848Z,76.35
2022-11-28T05:37:46.663Z,75.04
2022-11-28T05:40:13.632Z,76.07
2022-11-28T05:42:40.482Z,76.02
2022-11-28T05:45:08.150Z,75.48
2022-11-28T05:47:34.975Z,74.68
2022-11-28T05:50:01.829Z,75.07
2022-11-28T05:52:32.317Z,74.60
2022-11-28T05:55:00.313Z,74.46
2022-11-28T05:57:29.872Z,74.68
2022-11-28T05:59:57.421Z,74.53
2022-11-28T06:02:24.425Z,74.49
2022-11-28T06:04:51.299Z,75.15
2022-11-28T06:07:19.774Z,75.01
2022-11-28T06:09:46.804Z,75.02
2022-11-28T06:12:13.707Z,75.25
2022-11-28T06:14:40.606Z,75.26
2022-11-28T06:17:07.432Z,75.31
2022-11-28T06:19:34.274Z,74.71
2022-11-28T06:22:01.086Z,74.97
2022-11-28T06:24:27.996Z,74.74
2022-11-28T06:26:55.239Z,74.92
2022-11-28T06:29:22.199Z,75.12
2022-11-28T06:31:49.014Z,75.19
2022-11-28T06:34:16.434Z,74.82
2022-11-28T06:36:45.046Z,75.28
2022-11-28T06:39:16.682Z,74.90
2022-11-28T06:41:44.131Z,75.11
2022-11-28T06:44:14.923Z,75.53
2022-11-28T06:46:42.281Z,74.82
2022-11-28T06:49:12.984Z,74.85
2022-11-28T06:51:43.313Z,74.63
2022-11-28T06:54:10.140Z,74.88
2022-11-28T06:56:36.976Z,74.48
2022-11-28T06:59:04.106Z,75.15
2022-11-28T07:01:32.463Z,75.44
2022-11-28T07:03:59.458Z,75.02
2022-11-28T07:06:27.698Z,74.91
2022-11-28T07:08:57.634Z,75.09
2022-11-28T07:11:28.202Z,75.32
2022-11-28T07:13:56.207Z,74.81
2022-11-28T07:16:32.624Z,74.50
2022-11-28T07:19:00.345Z,74.75
2022-11-28T07:21:28.630Z,74.08
2022-11-28T07:23:55.609Z,74.30
2022-11-28T07:26:22.697Z,75.62
2022-11-28T07:28:51.038Z,74.72
2022-11-28T07:31:31.476Z,74.97
2022-11-28T07:34:03.197Z,74.40
2022-11-28T07:36:30.813Z,74.31
2022-11-28T07:39:03.729Z,74.32
2022-11-28T07:41:30.684Z,75.71
2022-11-28T07:44:00.583Z,74.71
2022-11-28T07:46:30.136Z,74.52
2022-11-28T07:48:57.375Z,73.73
2022-11-28T07:51:30.731Z,74.14
2022-11-28T07:53:58.467Z,73.46
2022-11-28T07:56:56.765Z,73.39
2022-11-28T07:59:16.737Z,73.28
2022-11-28T08:01:43.659Z,73.79
2022-11-28T08:04:10.690Z,74.16
2022-11-28T08:06:40.901Z,73.88
2022-11-28T08:09:08.754Z,73.39
2022-11-28T08:11:35.726Z,72.84
2022-11-28T08:14:05.057Z,72.61
2022-11-28T08:16:32.625Z,72.61
2022-11-28T08:19:03.394Z,73.82
2022-11-28T08:21:33.346Z,73.52
2022-11-28T08:24:02.347Z,72.86
2022-11-28T08:26:31.724Z,72.82
2022-11-28T08:29:00.156Z,72.44
2022-11-28T08:31:34.145Z,71.82
2022-11-28T08:34:04.409Z,72.31
2022-11-28T08:36:31.727Z,71.77
2022-11-28T08:39:22.807Z,72.09
2022-11-28T08:41:47.897Z,71.93
2022-11-28T08:44:14.666Z,71.69
2022-11-28T08:46:41.560Z,71.47
2022-11-28T08:49:08.376Z,71.57
2022-11-28T08:51:35.180Z,71.14
2022-11-28T08:54:02.040Z,70.81
2022-11-28T08:56:29.037Z,69.27
2022-11-28T08:58:56.204Z,69.86
2022-11-28T09:01:25.797Z,69.13
2022-11-28T09:03:54.705Z,69.06
2022-11-28T09:06:23.388Z,68.70
2022-11-28T09:08:51.459Z,68.51
2022-11-28T09:11:21.932Z,68.65
2022-11-28T09:13:49.306Z,68.18
2022-11-28T09:16:16.622Z,67.46
2022-11-28T09:18:43.670Z,67.36
2022-11-28T09:21:12.959Z,68.43
2022-11-28T09:23:42.213Z,67.61
2022-11-28T09:26:18.505Z,68.50
2022-11-28T09:28:46.285Z,68.00
2022-11-28T09:31:15.693Z,67.34
2022-11-28T09:33:43.578Z,67.43
2022-11-28T09:36:17.652Z,65.88
2022-11-28T09:38:44.947Z,65.72
2022-11-28T09:41:40.415Z,66.03
2022-11-28T09:44:42.849Z,66.48
2022-11-28T09:47:26.413Z,66.35
2022-11-28T09:50:01.044Z,65.58
2022-11-28T09:53:01.751Z,65.40
2022-11-28T09:55:47.358Z,65.16
2022-11-28T09:58:17.034Z,64.98
2022-11-28T10:00:56.919Z,65.17
2022-11-28T10:03:35.814Z,64.22
2022-11-28T10:06:23.118Z,64.77
2022-11-28T10:09:20.850Z,65.12
2022-11-28T10:12:34.274Z,64.20
2022-11-28T10:15:35.689Z,64.83
2022-11-28T10:18:08.369Z,64.38
2022-11-28T10:20:42.816Z,63.86
2022-11-28T10:23:27.124Z,63.76
2022-11-28T10:26:03.866Z,62.99
2022-11-28T10:28:38.256Z,62.59
2022-11-28T10:31:27.718Z,63.60
2022-11-28T10:34:25.010Z,62.49
2022-11-28T10:37:01.235Z,62.58
2022-11-28T10:39:28.717Z,62.71
2022-11-28T10:42:27.504Z,62.34
2022-11-28T10:45:17.981Z,62.03
2022-11-28T10:48:37.983Z,62.62
2022-11-28T10:51:19.830Z,62.06
2022-11-28T10:54:20.089Z,62.83
2022-11-28T10:57:03.427Z,61.98
2022-11-28T11:00:13.198Z,61.89
2022-11-28T11:02:57.811Z,61.44
2022-11-28T11:05:33.623Z,61.77
2022-11-28T11:08:25.133Z,61.00
2022-11-28T11:11:25.215Z,60.34
2022-11-28T11:14:08.271Z,62.00
2022-11-28T11:16:59.222Z,60.52
2022-11-28T11:19:38.555Z,60.12
2022-11-28T11:22:23.989Z,60.57
2022-11-28T11:25:12.476Z,60.70
2022-11-28T11:27:51.262Z,60.49
2022-11-28T11:30:32.508Z,59.66
2022-11-28T11:33:02.371Z,59.14
2022-11-28T11:35:34.982Z,59.67
2022-11-28T11:38:23.264Z,60.50
2022-11-28T11:40:51.684Z,62.37
2022-11-28T11:43:36.173Z,63.06
2022-11-28T11:46:06.153Z,64.97
2022-11-28T11:48:53.298Z,66.09
2022-11-28T11:51:32.742Z,64.92
2022-11-28T11:54:17.308Z,64.34
2022-11-28T11:56:49.480Z,64.04
2022-11-28T11:59:34.086Z,63.03
2022-11-28T12:02:21.701Z,61.95
2022-11-28T12:04:59.870Z,61.58
2022-11-28T12:07:37.293Z,61.60
2022-11-28T12:10:06.922Z,60.50
2022-11-28T12:12:37.435Z,60.74
2022-11-28T12:15:12.290Z,60.18
2022-11-28T12:18:08.005Z,61.53
2022-11-28T12:21:10.217Z,61.38
2022-11-28T12:23:51.985Z,60.26
2022-11-28T12:26:46.357Z,61.52
2022-11-28T12:29:25.012Z,61.23
2022-11-28T12:32:23.595Z,60.71
2022-11-28T12:35:02.267Z,61.64
2022-11-28T12:38:23.460Z,62.04
2022-11-28T12:41:20.966Z,62.69
2022-11-28T12:43:50.392Z,61.64
2022-11-28T12:46:36.325Z,62.06
2022-11-28T12:49:30.690Z,62.29
2022-11-28T12:52:24.424Z,63.06
2022-11-28T12:55:24.984Z,63.00
2022-11-28T12:58:22.295Z,63.28
2022-11-28T13:01:22.778Z,63.08
2022-11-28T13:04:46.982Z,62.97
2022-11-28T13:08:11.331Z,63.74
2022-11-28T13:11:09.021Z,63.84
2022-11-28T13:13:49.280Z,64.17
2022-11-28T13:16:33.164Z,64.64
2022-11-28T13:19:44.150Z,64.83
2022-11-28T13:22:38.853Z,64.33
2022-11-28T13:25:25.242Z,64.36
2022-11-28T13:28:09.064Z,64.79
2022-11-28T13:30:46.140Z,64.73
2022-11-28T13:33:50.225Z,64.71
2022-11-28T13:40:17.931Z,65.11
2022-11-28T13:43:08.073Z,64.84
2022-11-28T13:45:41.119Z,64.67
2022-11-28T13:51:33.078Z,64.62
2022-11-28T13:54:21.405Z,65.21
2022-11-28T13:57:27.000Z,64.56
2022-11-28T14:00:01.371Z,64.77
2022-11-28T14:02:48.699Z,64.65
2022-11-28T14:05:41.262Z,64.48
2022-11-28T14:08:26.157Z,64.38
2022-11-28T14:11:28.183Z,64.27
2022-11-28T14:14:14.342Z,64.48
2022-11-28T14:17:20.867Z,64.67
2022-11-28T14:20:16.761Z,64.65
2022-11-28T14:23:18.326Z,65.08
2022-11-28T14:25:49.043Z,64.99
2022-11-28T14:28:45.504Z,64.96
2022-11-28T14:31:29.236Z,64.55
2022-11-28T14:34:03.511Z,64.78
2022-11-28T14:36:42.021Z,65.51
2022-11-28T14:39:32.985Z,65.46
2022-11-28T14:42:05.480Z,65.29
2022-11-28T14:44:57.269Z,65.54
2022-11-28T14:47:24.036Z,65.58
2022-11-28T14:50:06.150Z,66.19
2022-11-28T14:52:40.269Z,66.64
2022-11-28T14:55:10.405Z,67.02
2022-11-28T14:58:00.124Z,67.39
2022-11-28T15:00:55.653Z,67.55
2022-11-28T15:03:46.087Z,67.37
2022-11-28T15:06:24.129Z,67.75
2022-11-28T15:09:22.155Z,67.97
2022-11-28T15:12:13.759Z,67.75
2022-11-28T15:14:41.055Z,67.70
2022-11-28T15:17:13.961Z,67.63
2022-11-28T15:19:48.587Z,68.08
2022-11-28T15:22:41.049Z,68.25
2022-11-28T15:25:38.005Z,68.39
2022-11-28T15:28:16.543Z,68.59
2022-11-28T15:30:47.237Z,68.82
2022-11-28T15:33:14.496Z,68.55
2022-11-28T15:35:58.327Z,68.41
2022-11-28T15:38:27.139Z,68.73
2022-11-28T15:40:55.213Z,68.29
2022-11-28T15:43:23.458Z,68.62
2022-11-28T15:45:53.326Z,68.61
2022-11-28T15:48:47.200Z,68.57
2022-11-28T15:51:33.858Z,68.55
2022-11-28T15:54:03.413Z,68.92
2022-11-28T15:56:30.523Z,69.00
2022-11-28T15:58:57.503Z,69.12
2022-11-28T16:01:27.462Z,69.14
2022-11-28T16:04:00.937Z,69.08
2022-11-28T16:06:35.227Z,68.93
2022-11-28T16:09:27.036Z,68.86
2022-11-28T16:11:54.446Z,68.89
2022-11-28T16:14:34.688Z,68.79
2022-11-28T16:17:07.556Z,68.78
2022-11-28T16:19:37.213Z,68.94
2022-11-28T16:22:15.284Z,68.80
2022-11-28T16:24:51.533Z,68.93
2022-11-28T16:27:35.823Z,69.33
2022-11-28T16:30:28.803Z,69.35
2022-11-28T16:32:56.721Z,69.57
2022-11-28T16:35:32.943Z,69.42
2022-11-28T16:38:23.061Z,69.92
2022-11-28T16:40:51.674Z,69.83
2022-11-28T16:43:40.413Z,69.72
2022-11-28T16:46:19.450Z,69.45
2022-11-28T16:48:59.775Z,69.49
2022-11-28T16:51:26.498Z,69.58
2022-11-28T16:53:55.257Z,70.19
2022-11-28T16:56:31.092Z,70.14
2022-11-28T16:59:02.839Z,69.94
2022-11-28T17:01:30.928Z,70.07
2022-11-28T17:03:57.955Z,69.91
2022-11-28T17:06:36.903Z,70.18
2022-11-28T17:09:07.241Z,70.19
2022-11-28T17:11:36.914Z,70.27
2022-11-28T17:14:11.771Z,70.06
2022-11-28T17:16:42.435Z,70.29
2022-11-28T17:19:09.375Z,69.72
2022-11-28T17:21:41.797Z,70.11
2022-11-28T17:24:23.453Z,70.51
2022-11-28T17:26:52.864Z,70.38
2022-11-28T17:29:20.587Z,70.54
2022-11-28T17:31:48.418Z,70.67
2022-11-28T17:34:21.563Z,70.75
2022-11-28T17:36:48.994Z,71.23
2022-11-28T17:39:17.818Z,70.97
2022-11-28T17:41:45.361Z,70.95
2022-11-28T17:44:16.378Z,71.03
2022-11-28T17:46:43.238Z,71.52
2022-11-28T17:49:10.094Z,71.22
2022-11-28T17:51:37.044Z,71.55
2022-11-28T17:54:04.306Z,71.46
2022-11-28T17:56:32.461Z,71.37
2022-11-28T17:59:00.268Z,71.63
2022-11-28T18:01:30.343Z,71.71
2022-11-28T18:03:57.671Z,71.49
2022-11-28T18:06:25.081Z,71.81
2022-11-28T18:08:52.212Z,71.72
2022-11-28T18:11:20.860Z,71.53
2022-11-28T18:13:48.071Z,71.75
2022-11-28T18:16:19.013Z,71.44
2022-11-28T18:18:46.143Z,71.86
2022-11-28T18:21:13.723Z,71.82
2022-11-28T18:23:42.517Z,71.78
2022-11-28T18:26:15.352Z,71.67
2022-11-28T18:28:42.826Z,71.64
2022-11-28T18:31:23.562Z,71.71
2022-11-28T18:33:51.109Z,71.24
2022-11-28T18:36:26.938Z,71.82
2022-11-28T18:39:03.123Z,71.99
2022-11-28T18:41:30.773Z,72.37
2022-11-28T18:44:04.606Z,72.45
2022-11-28T18:46:34.174Z,72.38
2022-11-28T18:49:03.304Z,72.26
2022-11-28T18:51:33.437Z,72.62
2022-11-28T18:54:05.661Z,72.61
2022-11-28T18:56:32.764Z,72.39
2022-11-28T18:58:59.696Z,72.24
2022-11-28T19:01:30.468Z,72.99
2022-11-28T19:04:03.102Z,72.83
2022-11-28T19:06:30.875Z,72.75
2022-11-28T19:09:01.097Z,72.90
2022-11-28T19:11:29.339Z,73.10
2022-11-28T19:13:57.159Z,72.88
2022-11-28T19:16:28.396Z,72.79
2022-11-28T19:18:55.649Z,72.54
2022-11-28T19:21:25.685Z,72.73
2022-11-28T19:23:54.342Z,72.91
2022-11-28T19:26:24.252Z,72.65
2022-11-28T19:28:51.922Z,73.09
2022-11-28T19:31:28.875Z,72.60
2022-11-28T19:34:03.154Z,72.50
2022-11-28T19:36:33.674Z,71.86
2022-11-28T19:39:00.947Z,71.90
2022-11-28T19:41:29.333Z,71.62
2022-11-28T19:43:56.751Z,72.52
2022-11-28T19:46:24.328Z,72.79
2022-11-28T19:48:51.790Z,72.18
2022-11-28T19:51:20.040Z,72.27
2022-11-28T19:53:47.238Z,72.65
2022-11-28T19:56:17.543Z,72.56
2022-11-28T19:58:45.307Z,73.15
2022-11-28T20:01:23.823Z,72.99
2022-11-28T20:03:52.030Z,72.67
2022-11-28T20:06:26.396Z,72.61
2022-11-28T20:08:55.480Z,72.82
2022-11-28T20:11:28.946Z,72.83
2022-11-28T20:14:08.471Z,73.40
2022-11-28T20:16:36.950Z,73.47
2022-11-28T20:19:05.691Z,73.71
2022-11-28T20:21:33.364Z,73.69
2022-11-28T20:24:04.708Z,73.38
2022-11-28T20:26:36.850Z,73.79
2022-11-28T20:29:03.740Z,73.30
2022-11-28T20:31:37.854Z,73.89
2022-11-28T20:34:06.589Z,73.40
2022-11-28T20:36:33.679Z,73.86
2022-11-28T20:39:00.964Z,74.26
2022-11-28T20:41:29.479Z,74.29
2022-11-28T20:43:59.072Z,74.34
2022-11-28T20:46:32.454Z,74.48
2022-11-28T20:49:02.170Z,74.80
2022-11-28T20:51:31.993Z,74.71
2022-11-28T20:53:59.913Z,74.50
2022-11-28T20:56:31.606Z,74.40
2022-11-28T20:59:00.740Z,74.48
2022-11-28T21:01:34.948Z,74.58
2022-11-28T21:04:05.550Z,74.64
2022-11-28T21:06:33.075Z,74.81
2022-11-28T21:08:59.891Z,74.75
2022-11-28T21:14:15.464Z,74.65
2022-11-28T21:16:42.599Z,74.68
2022-11-28T21:19:09.702Z,74.56
2022-11-28T21:21:39.627Z,74.90
2022-11-28T21:24:12.688Z,74.70
2022-11-28T21:26:45.267Z,74.73
2022-11-28T21:29:16.558Z,74.93
2022-11-28T21:31:44.836Z,74.95
2022-11-28T21:34:17.656Z,75.03
2022-11-28T21:36:45.645Z,75.26
2022-11-28T21:39:17.106Z,75.31
2022-11-28T21:41:43.914Z,75.28
2022-11-28T21:44:10.895Z,75.03
2022-11-28T21:46:37.954Z,75.28
2022-11-28T21:49:05.561Z,75.32
2022-11-28T21:51:32.432Z,75.40
2022-11-28T21:53:59.300Z,75.16
2022-11-28T21:56:26.594Z,74.74
2022-11-28T21:58:54.059Z,75.26
2022-11-28T22:01:21.830Z,74.65
2022-11-28T22:03:49.344Z,74.86
2022-11-28T22:06:24.348Z,74.88
2022-11-28T22:08:51.878Z,75.00
2022-11-28T22:11:20.847Z,75.22
2022-11-28T22:13:49.238Z,75.33
2022-11-28T22:16:29.156Z,74.93
2022-11-28T22:18:59.517Z,75.02
2022-11-28T22:24:14.000Z,75.39
2022-11-28T22:26:40.855Z,75.61
2022-11-28T22:29:07.756Z,75.50
2022-11-28T22:31:34.756Z,75.62
2022-11-28T22:34:01.635Z,75.54
2022-11-28T22:36:28.600Z,75.55
2022-11-28T22:38:57.738Z,75.48
2022-11-28T22:41:29.361Z,75.31
2022-11-28T22:44:00.342Z,75.46
2022-11-28T22:46:28.004Z,75.35
2022-11-28T22:48:54.811Z,75.84
2022-11-28T22:51:24.503Z,75.79
2022-11-28T22:53:56.803Z,75.84
2022-11-28T22:56:23.891Z,75.68
2022-11-28T22:58:50.969Z,75.58
2022-11-28T23:01:27.513Z,75.69
2022-11-28T23:03:55.426Z,75.65
2022-11-28T23:06:28.621Z,75.36
2022-11-28T23:08:57.966Z,75.95
2022-11-28T23:11:30.240Z,75.62
2022-11-28T23:13:57.194Z,75.80
2022-11-28T23:16:36.366Z,76.14
2022-11-28T23:19:16.428Z,75.79
2022-11-28T23:21:47.483Z,75.98
2022-11-28T23:24:21.840Z,75.82
2022-11-28T23:26:51.096Z,76.11
2022-11-28T23:29:18.628Z,75.78
2022-11-28T23:31:47.078Z,75.96
2022-11-28T23:34:15.376Z,76.05
2022-11-28T23:36:47.051Z,75.89
2022-11-28T23:39:20.770Z,75.66
2022-11-28T23:41:48.606Z,76.02
2022-11-28T23:44:17.535Z,76.03
2022-11-28T23:46:45.502Z,75.91
2022-11-28T23:49:13.048Z,75.85
2022-11-28T23:51:41.207Z,75.90
2022-11-28T23:54:10.133Z,76.12
2022-11-28T23:56:39.151Z,76.00
2022-11-28T23:59:09.341Z,75.88
